createdAt,value
2017-04-04T00:00:49.625Z,22.17
2017-04-04T00:01:59.232Z,22.2
2017-04-04T00:03:08.853Z,22.22
2017-04-04T00:04:19.226Z,22.21
2017-04-04T00:05:28.834Z,22.21
2017-04-04T00:06:38.770Z,22.21
2017-04-04T00:07:49.009Z,22.24
2017-04-04T00:08:59.261Z,22.21
2017-04-04T00:10:09.342Z,22.25
2017-04-04T00:11:19.305Z,22.22
2017-04-04T00:12:28.605Z,22.2
2017-04-04T00:13:38.534Z,22.21
2017-04-04T00:14:48.145Z,22.18
2017-04-04T00:15:58.471Z,22.18
2017-04-04T00:17:08.408Z,22.1
2017-04-04T00:18:18.322Z,22.18
2017-04-04T00:19:27.978Z,22.2
2017-04-04T00:20:38.196Z,22.17
2017-04-04T00:21:48.293Z,22.15
2017-04-04T00:22:58.224Z,22.17
2017-04-04T00:24:08.460Z,22.14
2017-04-04T00:25:18.102Z,22.21
2017-04-04T00:26:28.341Z,22.2
2017-04-04T00:27:38.122Z,22.14
2017-04-04T00:28:48.038Z,22.09
2017-04-04T00:29:58.254Z,22.14
2017-04-04T00:31:08.479Z,22.15
2017-04-04T00:32:18.715Z,22.07
2017-04-04T00:33:28.799Z,22.14
2017-04-04T00:34:38.400Z,22.03
2017-04-04T00:35:48.315Z,22.14
2017-04-04T00:36:58.250Z,22.03
2017-04-04T00:38:08.474Z,22.07
2017-04-04T00:39:18.785Z,22.09
2017-04-04T00:40:29.012Z,22.09
2017-04-04T00:41:38.921Z,22.05
2017-04-04T00:42:48.536Z,22.09
2017-04-04T00:43:58.448Z,22.05
2017-04-04T00:45:08.967Z,22.03
2017-04-04T00:46:18.591Z,22.09
2017-04-04T00:47:27.884Z,22.09
2017-04-04T00:48:37.523Z,22.06
2017-04-04T00:49:47.438Z,22.03
2017-04-04T00:50:57.667Z,22.07
2017-04-04T00:52:07.576Z,22.09
2017-04-04T00:53:17.482Z,22.07
2017-04-04T00:54:27.453Z,22.07
2017-04-04T00:55:37.071Z,22.03
2017-04-04T00:56:47.438Z,22.07
2017-04-04T00:57:56.746Z,22.06
2017-04-04T00:59:06.043Z,22.14
2017-04-04T01:00:15.948Z,22.14
2017-04-04T01:01:26.156Z,22.12
2017-04-04T01:02:36.368Z,22.03
2017-04-04T01:03:46.584Z,22.07
2017-04-04T01:04:56.218Z,22.05
2017-04-04T01:06:06.193Z,22.09
2017-04-04T01:07:16.146Z,22.07
2017-04-04T01:08:26.856Z,22.12
2017-04-04T01:09:36.851Z,22.12
2017-04-04T01:10:46.814Z,22.12
2017-04-04T01:11:56.465Z,22.07
2017-04-04T01:13:06.694Z,22.03
2017-04-04T01:14:17.091Z,22.07
2017-04-04T01:15:27.072Z,22.09
2017-04-04T01:16:37.320Z,22.07
2017-04-04T01:17:47.256Z,22.1
2017-04-04T01:18:57.181Z,21.96
2017-04-04T01:20:07.526Z,22.07
2017-04-04T01:21:17.792Z,21.96
2017-04-04T01:22:26.796Z,22.02
2017-04-04T01:23:36.996Z,22
2017-04-04T01:24:46.294Z,22.02
2017-04-04T01:25:56.522Z,22.07
2017-04-04T01:27:06.739Z,21.96
2017-04-04T01:28:16.963Z,21.96
2017-04-04T01:29:26.874Z,22.05
2017-04-04T01:30:36.527Z,21.96
2017-04-04T01:31:46.437Z,22.02
2017-04-04T01:32:56.044Z,21.99
2017-04-04T01:34:05.959Z,22.02
2017-04-04T01:35:15.867Z,22.05
2017-04-04T01:36:26.086Z,22.02
2017-04-04T01:37:36.043Z,22
2017-04-04T01:38:45.653Z,22
2017-04-04T01:39:55.556Z,22.02
2017-04-04T01:41:05.474Z,21.98
2017-04-04T01:42:15.692Z,21.98
2017-04-04T01:43:25.761Z,21.99
2017-04-04T01:44:35.365Z,22
2017-04-04T01:45:45.273Z,21.94
2017-04-04T01:46:54.884Z,22.02
2017-04-04T01:48:04.821Z,21.96
2017-04-04T01:49:15.183Z,21.98
2017-04-04T01:50:25.102Z,21.98
2017-04-04T01:51:35.008Z,21.99
2017-04-04T01:52:44.921Z,21.99
2017-04-04T01:53:55.133Z,22
2017-04-04T01:55:05.156Z,21.96
2017-04-04T01:56:15.085Z,21.94
2017-04-04T01:57:25.311Z,21.99
2017-04-04T01:58:35.223Z,21.98
2017-04-04T01:59:45.449Z,21.96
2017-04-04T02:00:56.012Z,21.96
2017-04-04T02:02:05.930Z,21.92
2017-04-04T02:03:15.850Z,22
2017-04-04T02:04:25.449Z,22.03
2017-04-04T02:05:35.349Z,21.99
2017-04-04T02:06:45.260Z,21.99
2017-04-04T02:07:55.473Z,21.94
2017-04-04T02:09:04.501Z,21.86
2017-04-04T02:10:14.113Z,21.9
2017-04-04T02:11:23.712Z,21.94
2017-04-04T02:12:33.425Z,21.94
2017-04-04T02:13:43.330Z,22
2017-04-04T02:14:53.557Z,21.96
2017-04-04T02:16:03.188Z,21.84
2017-04-04T02:17:13.094Z,21.94
2017-04-04T02:18:23.042Z,21.99
2017-04-04T02:19:33.266Z,21.88
2017-04-04T02:20:42.873Z,21.9
2017-04-04T02:21:52.793Z,21.96
2017-04-04T02:23:02.698Z,21.9
2017-04-04T02:24:12.637Z,21.92
2017-04-04T02:25:22.269Z,21.98
2017-04-04T02:26:32.175Z,21.92
2017-04-04T02:27:41.776Z,21.9
2017-04-04T02:28:51.373Z,21.88
2017-04-04T02:30:01.989Z,21.94
2017-04-04T02:31:12.210Z,21.98
2017-04-04T02:32:22.115Z,21.96
2017-04-04T02:33:32.345Z,21.83
2017-04-04T02:34:42.261Z,21.88
2017-04-04T02:35:52.282Z,21.98
2017-04-04T02:37:02.495Z,21.96
2017-04-04T02:38:12.741Z,21.86
2017-04-04T02:39:22.348Z,21.96
2017-04-04T02:40:32.265Z,21.91
2017-04-04T02:41:42.275Z,21.91
2017-04-04T02:42:52.212Z,21.84
2017-04-04T02:44:02.435Z,21.88
2017-04-04T02:45:12.351Z,21.92
2017-04-04T02:46:22.269Z,21.86
2017-04-04T02:47:32.337Z,21.9
2017-04-04T02:48:42.560Z,21.83
2017-04-04T02:49:52.174Z,21.9
2017-04-04T02:51:02.086Z,21.88
2017-04-04T02:52:12.012Z,21.77
2017-04-04T02:53:22.067Z,21.84
2017-04-04T02:54:31.666Z,21.75
2017-04-04T02:55:41.583Z,21.92
2017-04-04T02:56:51.198Z,21.75
2017-04-04T02:58:01.479Z,21.84
2017-04-04T02:59:11.231Z,21.79
2017-04-04T03:00:21.451Z,21.91
2017-04-04T03:01:31.676Z,21.71
2017-04-04T03:02:41.904Z,21.75
2017-04-04T03:03:52.117Z,21.75
2017-04-04T03:05:01.513Z,21.88
2017-04-04T03:06:11.723Z,21.82
2017-04-04T03:07:21.630Z,21.86
2017-04-04T03:08:31.537Z,21.77
2017-04-04T03:09:41.745Z,21.74
2017-04-04T03:10:52.716Z,21.86
2017-04-04T03:12:02.923Z,21.88
2017-04-04T03:13:12.837Z,21.74
2017-04-04T03:14:22.755Z,21.82
2017-04-04T03:15:32.672Z,21.83
2017-04-04T03:16:42.957Z,21.88
2017-04-04T03:17:52.861Z,21.88
2017-04-04T03:19:02.785Z,21.8
2017-04-04T03:20:12.386Z,21.84
2017-04-04T03:21:22.621Z,21.8
2017-04-04T03:22:32.842Z,21.77
2017-04-04T03:23:43.056Z,21.72
2017-04-04T03:24:52.670Z,21.8
2017-04-04T03:26:02.585Z,21.79
2017-04-04T03:27:12.495Z,21.84
2017-04-04T03:28:22.398Z,21.75
2017-04-04T03:29:32.000Z,21.82
2017-04-04T03:30:42.211Z,21.8
2017-04-04T03:31:52.120Z,21.79
2017-04-04T03:33:01.738Z,21.83
2017-04-04T03:34:13.060Z,21.79
2017-04-04T03:35:23.273Z,21.79
2017-04-04T03:36:33.191Z,21.77
2017-04-04T03:37:43.109Z,21.8
2017-04-04T03:38:53.322Z,21.71
2017-04-04T03:40:03.997Z,21.77
2017-04-04T03:41:13.950Z,21.75
2017-04-04T03:42:23.246Z,21.74
2017-04-04T03:43:33.148Z,21.75
2017-04-04T03:44:43.066Z,21.74
2017-04-04T03:45:53.373Z,21.82
2017-04-04T03:47:02.974Z,21.77
2017-04-04T03:48:12.593Z,21.8
2017-04-04T03:49:22.506Z,21.72
2017-04-04T03:50:32.104Z,21.77
2017-04-04T03:51:42.328Z,21.77
2017-04-04T03:52:51.942Z,21.75
2017-04-04T03:54:01.842Z,21.77
2017-04-04T03:55:12.050Z,21.77
2017-04-04T03:56:22.273Z,21.79
2017-04-04T03:57:33.014Z,21.77
2017-04-04T03:58:42.917Z,21.74
2017-04-04T03:59:52.828Z,21.77
2017-04-04T04:01:02.438Z,21.79
2017-04-04T04:02:12.348Z,21.71
2017-04-04T04:03:22.554Z,21.72
2017-04-04T04:04:32.763Z,21.71
2017-04-04T04:05:42.396Z,21.72
2017-04-04T04:06:52.622Z,21.75
2017-04-04T04:08:02.533Z,21.75
2017-04-04T04:09:12.266Z,21.75
2017-04-04T04:10:22.493Z,21.71
2017-04-04T04:11:32.406Z,21.71
2017-04-04T04:12:42.015Z,21.74
2017-04-04T04:13:51.343Z,21.77
2017-04-04T04:15:01.408Z,21.74
2017-04-04T04:16:11.012Z,21.72
2017-04-04T04:17:21.225Z,21.74
2017-04-04T04:18:31.459Z,21.69
2017-04-04T04:19:41.062Z,21.75
2017-04-04T04:20:51.424Z,21.77
2017-04-04T04:22:01.643Z,21.72
2017-04-04T04:23:11.555Z,21.77
2017-04-04T04:24:21.464Z,21.72
2017-04-04T04:25:31.685Z,21.65
2017-04-04T04:26:42.072Z,21.75
2017-04-04T04:27:52.281Z,21.72
2017-04-04T04:29:02.588Z,21.74
2017-04-04T04:30:12.518Z,21.75
2017-04-04T04:31:22.434Z,21.72
2017-04-04T04:32:32.652Z,21.69
2017-04-04T04:33:42.277Z,21.75
2017-04-04T04:34:52.491Z,21.74
2017-04-04T04:36:02.134Z,21.67
2017-04-04T04:37:12.057Z,21.72
2017-04-04T04:38:22.119Z,21.77
2017-04-04T04:39:32.329Z,21.83
2017-04-04T04:40:42.924Z,21.72
2017-04-04T04:41:52.556Z,21.84
2017-04-04T04:43:01.853Z,21.92
2017-04-04T04:44:11.872Z,21.88
2017-04-04T04:45:21.779Z,21.98
2017-04-04T04:46:31.081Z,22.02
2017-04-04T04:47:40.374Z,22.05
2017-04-04T04:48:50.013Z,21.99
2017-04-04T04:50:00.190Z,21.99
2017-04-04T04:51:09.837Z,22.1
2017-04-04T04:52:19.769Z,22.06
2017-04-04T04:53:29.987Z,22.1
2017-04-04T04:54:39.600Z,22.14
2017-04-04T04:55:49.945Z,22.18
2017-04-04T04:56:59.872Z,22.25
2017-04-04T04:58:09.543Z,22.28
2017-04-04T04:59:19.481Z,22.27
2017-04-04T05:00:28.829Z,22.35
2017-04-04T05:01:39.440Z,22.36
2017-04-04T05:02:49.059Z,22.46
2017-04-04T05:03:58.732Z,22.55
2017-04-04T05:05:08.670Z,22.52
2017-04-04T05:06:18.287Z,22.61
2017-04-04T05:07:28.054Z,22.58
2017-04-04T05:08:38.319Z,22.73
2017-04-04T05:09:48.239Z,22.62
2017-04-04T05:10:57.820Z,22.76
2017-04-04T05:12:07.494Z,22.82
2017-04-04T05:13:17.790Z,22.8
2017-04-04T05:14:27.719Z,22.94
2017-04-04T05:15:37.652Z,22.88
2017-04-04T05:16:47.302Z,22.94
2017-04-04T05:17:57.560Z,22.98
2017-04-04T05:19:07.018Z,23.05
2017-04-04T05:20:16.651Z,23.15
2017-04-04T05:21:26.597Z,23.13
2017-04-04T05:22:36.861Z,23.23
2017-04-04T05:23:46.775Z,23.23
2017-04-04T05:24:57.167Z,23.39
2017-04-04T05:26:06.467Z,23.35
2017-04-04T05:27:16.387Z,23.4
2017-04-04T05:28:26.019Z,23.51
2017-04-04T05:29:35.642Z,23.58
2017-04-04T05:30:46.123Z,23.58
2017-04-04T05:31:55.742Z,23.63
2017-04-04T05:33:05.969Z,23.66
2017-04-04T05:34:15.911Z,23.63
2017-04-04T05:35:25.526Z,23.7
2017-04-04T05:36:36.051Z,23.73
2017-04-04T05:37:45.659Z,23.79
2017-04-04T05:38:55.587Z,23.79
2017-04-04T05:40:05.804Z,23.88
2017-04-04T05:41:15.415Z,23.9
2017-04-04T05:42:25.482Z,23.85
2017-04-04T05:43:35.104Z,23.93
2017-04-04T05:44:45.393Z,23.9
2017-04-04T05:45:55.624Z,23.91
2017-04-04T05:47:05.873Z,23.94
2017-04-04T05:48:16.825Z,24
2017-04-04T05:49:26.785Z,24.05
2017-04-04T05:50:37.034Z,24.08
2017-04-04T05:51:47.304Z,24.12
2017-04-04T05:52:56.968Z,24.02
2017-04-04T05:54:07.167Z,24.06
2017-04-04T05:55:16.770Z,24.08
2017-04-04T05:56:26.384Z,24.03
2017-04-04T05:57:36.595Z,23.98
2017-04-04T05:58:46.815Z,24.08
2017-04-04T05:59:57.145Z,23.97
2017-04-04T06:01:07.076Z,23.88
2017-04-04T06:02:17.347Z,23.95
2017-04-04T06:03:27.604Z,23.9
2017-04-04T06:04:37.554Z,23.84
2017-04-04T06:05:47.491Z,23.8
2017-04-04T06:06:57.423Z,23.85
2017-04-04T06:08:07.346Z,23.78
2017-04-04T06:09:17.286Z,23.87
2017-04-04T06:10:27.218Z,23.84
2017-04-04T06:11:38.189Z,23.8
2017-04-04T06:12:48.101Z,23.76
2017-04-04T06:13:58.084Z,23.83
2017-04-04T06:15:07.748Z,23.83
2017-04-04T06:16:17.664Z,23.78
2017-04-04T06:17:27.732Z,23.83
2017-04-04T06:18:37.644Z,23.8
2017-04-04T06:19:47.549Z,23.8
2017-04-04T06:20:57.770Z,23.75
2017-04-04T06:22:07.685Z,23.85
2017-04-04T06:23:18.010Z,23.84
2017-04-04T06:24:27.920Z,23.72
2017-04-04T06:25:37.235Z,23.73
2017-04-04T06:26:47.166Z,23.78
2017-04-04T06:27:57.389Z,23.75
2017-04-04T06:29:07.449Z,23.78
2017-04-04T06:30:17.372Z,23.8
2017-04-04T06:31:27.661Z,23.79
2017-04-04T06:32:37.577Z,23.75
2017-04-04T06:33:47.479Z,23.76
2017-04-04T06:34:57.825Z,23.76
2017-04-04T06:36:07.149Z,23.76
2017-04-04T06:37:17.379Z,23.79
2017-04-04T06:38:27.305Z,23.65
2017-04-04T06:39:37.258Z,23.66
2017-04-04T06:40:47.422Z,23.63
2017-04-04T06:41:57.051Z,23.73
2017-04-04T06:43:07.000Z,23.65
2017-04-04T06:44:16.633Z,23.69
2017-04-04T06:45:26.551Z,23.78
2017-04-04T06:46:36.301Z,23.7
2017-04-04T06:47:46.252Z,23.7
2017-04-04T06:48:55.581Z,23.73
2017-04-04T06:50:05.542Z,23.75
2017-04-04T06:51:15.176Z,23.7
2017-04-04T06:52:25.096Z,23.75
2017-04-04T06:53:35.020Z,23.72
2017-04-04T06:54:45.246Z,23.69
2017-04-04T06:55:55.474Z,23.73
2017-04-04T06:57:04.780Z,23.69
2017-04-04T06:58:15.319Z,23.72
2017-04-04T06:59:24.631Z,23.63
2017-04-04T07:00:34.255Z,23.75
2017-04-04T07:01:44.179Z,23.66
2017-04-04T07:02:54.094Z,23.69
2017-04-04T07:04:04.107Z,23.65
2017-04-04T07:05:13.712Z,23.66
2017-04-04T07:06:23.629Z,23.63
2017-04-04T07:07:33.544Z,23.68
2017-04-04T07:08:43.462Z,23.63
2017-04-04T07:09:53.515Z,23.65
2017-04-04T07:11:03.149Z,23.63
2017-04-04T07:12:13.381Z,23.61
2017-04-04T07:13:22.988Z,23.6
2017-04-04T07:14:31.983Z,23.65
2017-04-04T07:15:41.742Z,23.6
2017-04-04T07:16:51.354Z,23.63
2017-04-04T07:18:01.580Z,23.65
2017-04-04T07:19:11.807Z,23.69
2017-04-04T07:20:21.741Z,23.68
2017-04-04T07:21:31.551Z,23.6
2017-04-04T07:22:41.773Z,23.65
2017-04-04T07:23:51.073Z,23.65
2017-04-04T07:25:01.280Z,23.61
2017-04-04T07:26:11.517Z,23.58
2017-04-04T07:27:21.692Z,23.57
2017-04-04T07:28:31.066Z,23.58
2017-04-04T07:29:41.006Z,23.55
2017-04-04T07:30:50.934Z,23.6
2017-04-04T07:32:00.850Z,23.58
2017-04-04T07:33:11.357Z,23.55
2017-04-04T07:34:20.653Z,23.55
2017-04-04T07:35:30.252Z,23.55
2017-04-04T07:36:40.177Z,23.55
2017-04-04T07:37:50.078Z,23.53
2017-04-04T07:39:00.019Z,23.51
2017-04-04T07:40:10.431Z,23.48
2017-04-04T07:41:20.653Z,23.57
2017-04-04T07:42:30.572Z,23.53
2017-04-04T07:43:40.186Z,23.51
2017-04-04T07:44:50.451Z,23.53
2017-04-04T07:46:00.363Z,23.51
2017-04-04T07:47:10.573Z,23.43
2017-04-04T07:48:20.490Z,23.46
2017-04-04T07:49:30.698Z,23.46
2017-04-04T07:50:40.390Z,23.43
2017-04-04T07:51:50.024Z,23.42
2017-04-04T07:53:00.253Z,23.46
2017-04-04T07:54:10.169Z,23.47
2017-04-04T07:55:20.438Z,23.4
2017-04-04T07:56:30.364Z,23.4
2017-04-04T07:57:40.279Z,23.46
2017-04-04T07:58:50.553Z,23.39
2017-04-04T08:00:00.463Z,23.4
2017-04-04T08:01:10.383Z,23.43
2017-04-04T08:02:20.510Z,23.36
2017-04-04T08:03:30.131Z,23.39
2017-04-04T08:04:40.352Z,23.4
2017-04-04T08:05:49.960Z,23.35
2017-04-04T08:06:59.567Z,23.39
2017-04-04T08:08:09.831Z,23.38
2017-04-04T08:09:18.832Z,23.4
2017-04-04T08:10:28.759Z,23.36
2017-04-04T08:11:38.976Z,23.39
2017-04-04T08:12:48.895Z,23.4
2017-04-04T08:13:59.282Z,23.42
2017-04-04T08:15:09.505Z,23.39
2017-04-04T08:16:19.404Z,23.39
2017-04-04T08:17:29.310Z,23.22
2017-04-04T08:18:38.598Z,23.27
2017-04-04T08:19:48.748Z,23.25
2017-04-04T08:20:58.654Z,23.31
2017-04-04T08:22:08.584Z,23.31
2017-04-04T08:23:18.192Z,23.31
2017-04-04T08:24:28.422Z,23.27
2017-04-04T08:25:38.429Z,23.32
2017-04-04T08:26:48.337Z,23.23
2017-04-04T08:27:57.950Z,23.28
2017-04-04T08:29:07.852Z,23.28
2017-04-04T08:30:17.765Z,23.28
2017-04-04T08:31:28.032Z,23.25
2017-04-04T08:32:37.986Z,23.23
2017-04-04T08:33:47.618Z,23.23
2017-04-04T08:34:57.523Z,23.19
2017-04-04T08:36:07.444Z,23.16
2017-04-04T08:37:17.609Z,23.27
2017-04-04T08:38:27.239Z,23.25
2017-04-04T08:39:37.172Z,23.25
2017-04-04T08:40:46.807Z,23.25
2017-04-04T08:41:56.718Z,23.22
2017-04-04T08:43:06.624Z,23.23
2017-04-04T08:44:15.916Z,23.2
2017-04-04T08:45:25.834Z,23.22
2017-04-04T08:46:36.080Z,23.17
2017-04-04T08:47:46.026Z,23.19
2017-04-04T08:48:57.160Z,23.15
2017-04-04T08:50:07.446Z,23.2
2017-04-04T08:51:16.758Z,23.13
2017-04-04T08:52:26.987Z,23.17
2017-04-04T08:53:36.909Z,23.16
2017-04-04T08:54:47.084Z,23.2
2017-04-04T08:55:57.316Z,23.16
2017-04-04T08:57:07.230Z,23.16
2017-04-04T08:58:17.147Z,23.16
2017-04-04T08:59:26.769Z,23.07
2017-04-04T09:00:37.149Z,23.13
2017-04-04T09:01:46.764Z,23.12
2017-04-04T09:02:56.999Z,23.02
2017-04-04T09:04:07.043Z,23.1
2017-04-04T09:05:16.983Z,23.09
2017-04-04T09:06:27.492Z,23.07
2017-04-04T09:07:37.422Z,23.1
2017-04-04T09:08:47.663Z,23.04
2017-04-04T09:09:57.704Z,23.07
2017-04-04T09:11:07.649Z,23.07
2017-04-04T09:12:17.777Z,23.02
2017-04-04T09:13:28.022Z,23.02
2017-04-04T09:14:37.675Z,23.04
2017-04-04T09:15:47.936Z,23.07
2017-04-04T09:16:57.852Z,23.09
2017-04-04T09:18:08.472Z,23.09
2017-04-04T09:19:18.408Z,23.04
2017-04-04T09:20:28.045Z,23.04
2017-04-04T09:21:37.960Z,23.04
2017-04-04T09:22:47.584Z,23.02
2017-04-04T09:23:57.362Z,23.01
2017-04-04T09:25:07.626Z,23.01
2017-04-04T09:26:17.545Z,22.98
2017-04-04T09:27:27.501Z,22.97
2017-04-04T09:28:37.424Z,22.98
2017-04-04T09:29:47.390Z,22.98
2017-04-04T09:30:57.316Z,22.97
2017-04-04T09:32:07.228Z,23.04
2017-04-04T09:33:16.839Z,22.98
2017-04-04T09:34:26.437Z,22.92
2017-04-04T09:35:36.695Z,22.95
2017-04-04T09:36:46.598Z,22.97
2017-04-04T09:37:56.505Z,22.95
2017-04-04T09:39:06.410Z,22.92
2017-04-04T09:40:16.017Z,23
2017-04-04T09:41:25.632Z,22.95
2017-04-04T09:42:35.578Z,22.94
2017-04-04T09:43:44.960Z,22.92
2017-04-04T09:44:54.578Z,22.97
2017-04-04T09:46:04.506Z,22.97
2017-04-04T09:47:15.024Z,22.97
2017-04-04T09:48:25.046Z,22.92
2017-04-04T09:49:34.660Z,22.94
2017-04-04T09:50:44.270Z,22.9
2017-04-04T09:51:54.490Z,22.88
2017-04-04T09:53:04.701Z,22.94
2017-04-04T09:54:14.690Z,22.91
2017-04-04T09:55:24.669Z,22.88
2017-04-04T09:56:34.331Z,22.88
2017-04-04T09:57:43.659Z,22.9
2017-04-04T09:58:53.735Z,22.92
2017-04-04T10:00:03.644Z,22.88
2017-04-04T10:01:13.975Z,22.92
2017-04-04T10:02:23.606Z,22.85
2017-04-04T10:03:33.542Z,22.85
2017-04-04T10:04:43.907Z,22.91
2017-04-04T10:05:53.203Z,22.88
2017-04-04T10:07:03.432Z,22.86
2017-04-04T10:08:13.345Z,22.91
2017-04-04T10:09:22.952Z,22.83
2017-04-04T10:10:32.857Z,22.91
2017-04-04T10:11:42.476Z,22.83
2017-04-04T10:12:52.695Z,22.9
2017-04-04T10:14:02.612Z,22.85
2017-04-04T10:15:12.253Z,22.85
2017-04-04T10:16:22.162Z,22.91
2017-04-04T10:17:32.403Z,22.9
2017-04-04T10:18:42.317Z,22.86
2017-04-04T10:19:52.225Z,22.9
2017-04-04T10:21:02.152Z,22.88
2017-04-04T10:22:12.531Z,22.82
2017-04-04T10:23:22.134Z,22.82
2017-04-04T10:24:32.042Z,22.82
2017-04-04T10:25:42.399Z,22.8
2017-04-04T10:26:52.000Z,22.82
2017-04-04T10:28:02.485Z,22.79
2017-04-04T10:29:12.099Z,22.86
2017-04-04T10:30:22.023Z,22.88
2017-04-04T10:31:31.954Z,22.86
2017-04-04T10:32:41.596Z,22.83
2017-04-04T10:33:51.430Z,22.85
2017-04-04T10:35:01.040Z,22.85
2017-04-04T10:36:10.946Z,22.9
2017-04-04T10:37:20.863Z,22.8
2017-04-04T10:38:30.469Z,22.86
2017-04-04T10:39:40.106Z,22.88
2017-04-04T10:40:50.121Z,22.85
2017-04-04T10:41:59.748Z,22.88
2017-04-04T10:43:09.990Z,22.88
2017-04-04T10:44:19.906Z,22.86
2017-04-04T10:45:30.134Z,22.9
2017-04-04T10:46:39.744Z,22.91
2017-04-04T10:47:49.651Z,22.92
2017-04-04T10:48:59.261Z,22.94
2017-04-04T10:50:09.486Z,22.94
2017-04-04T10:51:19.769Z,22.95
2017-04-04T10:52:29.667Z,23.02
2017-04-04T10:53:39.881Z,22.94
2017-04-04T10:54:49.807Z,22.97
2017-04-04T10:55:59.404Z,22.91
2017-04-04T10:57:09.140Z,22.95
2017-04-04T10:58:18.763Z,22.97
2017-04-04T10:59:28.695Z,22.95
2017-04-04T11:00:38.615Z,22.95
2017-04-04T11:01:48.592Z,22.9
2017-04-04T11:02:58.847Z,22.94
2017-04-04T11:04:09.074Z,22.91
2017-04-04T11:05:18.687Z,22.92
2017-04-04T11:06:28.617Z,22.97
2017-04-04T11:07:38.850Z,22.95
2017-04-04T11:08:48.481Z,22.97
2017-04-04T11:09:58.701Z,23
2017-04-04T11:11:08.619Z,23.02
2017-04-04T11:12:18.850Z,23.05
2017-04-04T11:13:28.761Z,23
2017-04-04T11:14:38.977Z,23.01
2017-04-04T11:15:48.940Z,23.01
2017-04-04T11:16:58.880Z,23.04
2017-04-04T11:18:08.494Z,23.02
2017-04-04T11:19:18.714Z,23.04
2017-04-04T11:20:29.682Z,23.09
2017-04-04T11:21:39.294Z,23.1
2017-04-04T11:22:48.896Z,22.98
2017-04-04T11:23:59.124Z,23.04
2017-04-04T11:25:08.745Z,23.04
2017-04-04T11:26:18.838Z,23.07
2017-04-04T11:27:29.446Z,23.13
2017-04-04T11:28:39.111Z,23.07
2017-04-04T11:29:49.067Z,23.09
2017-04-04T11:30:59.304Z,23.01
2017-04-04T11:32:09.260Z,23.15
2017-04-04T11:33:19.218Z,23.07
2017-04-04T11:34:29.128Z,23.15
2017-04-04T11:35:38.737Z,23.04
2017-04-04T11:36:48.965Z,23.07
2017-04-04T11:37:58.713Z,23.15
2017-04-04T11:39:08.631Z,23.13
2017-04-04T11:40:18.542Z,23.07
2017-04-04T11:41:28.765Z,23.15
2017-04-04T11:42:39.020Z,23.1
2017-04-04T11:43:48.624Z,23.07
2017-04-04T11:44:58.243Z,23.04
2017-04-04T11:46:07.851Z,23.16
2017-04-04T11:47:17.471Z,23.16
2017-04-04T11:48:27.698Z,23.04
2017-04-04T11:49:38.713Z,23.1
2017-04-04T11:51:52.545Z,23.1
2017-04-04T11:53:02.460Z,23.07
2017-04-04T11:54:12.681Z,23.1
2017-04-04T11:55:22.738Z,23.2
2017-04-04T11:56:32.955Z,23.13
2017-04-04T11:57:42.871Z,23.22
2017-04-04T11:58:52.790Z,23.17
2017-04-04T12:00:02.465Z,23.23
2017-04-04T12:01:12.827Z,23.15
2017-04-04T12:02:22.417Z,23.19
2017-04-04T12:03:32.342Z,23.19
2017-04-04T12:04:42.256Z,23.22
2017-04-04T12:05:52.174Z,23.27
2017-04-04T12:07:02.095Z,23.22
2017-04-04T12:08:12.324Z,23.12
2017-04-04T12:09:22.539Z,23.28
2017-04-04T12:10:32.465Z,23.16
2017-04-04T12:11:42.090Z,23.25
2017-04-04T12:12:52.162Z,23.27
2017-04-04T12:14:01.781Z,23.27
2017-04-04T12:15:11.311Z,23.23
2017-04-04T12:16:22.112Z,23.25
2017-04-04T12:17:32.101Z,23.17
2017-04-04T12:18:42.224Z,23.35
2017-04-04T12:19:52.122Z,23.32
2017-04-04T12:21:01.473Z,23.28
2017-04-04T12:22:11.397Z,23.28
2017-04-04T12:23:21.666Z,23.27
2017-04-04T12:24:31.709Z,23.28
2017-04-04T12:25:41.609Z,23.27
2017-04-04T12:26:51.907Z,23.2
2017-04-04T12:28:02.003Z,23.27
2017-04-04T12:29:11.628Z,23.27
2017-04-04T12:30:21.429Z,23.25
2017-04-04T12:31:31.056Z,23.28
2017-04-04T12:32:41.013Z,23.27
2017-04-04T12:33:50.619Z,23.27
2017-04-04T12:35:00.525Z,23.27
2017-04-04T12:36:10.592Z,23.31
2017-04-04T12:37:20.504Z,23.27
2017-04-04T12:38:30.187Z,23.31
2017-04-04T12:39:40.124Z,23.22
2017-04-04T12:40:49.455Z,23.23
2017-04-04T12:41:59.210Z,23.27
2017-04-04T12:43:09.461Z,23.19
2017-04-04T12:44:19.072Z,23.19
2017-04-04T12:45:28.992Z,23.27
2017-04-04T12:46:38.706Z,23.27
2017-04-04T12:47:48.910Z,23.25
2017-04-04T12:48:58.833Z,23.27
2017-04-04T12:50:08.783Z,23.25
2017-04-04T12:51:19.021Z,23.22
2017-04-04T12:52:28.966Z,23.23
2017-04-04T12:53:39.355Z,23.17
2017-04-04T12:54:49.293Z,23.2
2017-04-04T12:55:58.921Z,23.17
2017-04-04T12:57:08.882Z,23.23
2017-04-04T12:58:18.810Z,23.22
2017-04-04T12:59:28.881Z,23.31
2017-04-04T13:00:39.093Z,23.27
2017-04-04T13:01:49.446Z,23.38
2017-04-04T13:02:59.672Z,23.28
2017-04-04T13:04:08.669Z,23.39
2017-04-04T13:05:18.810Z,23.39
2017-04-04T13:06:28.438Z,23.28
2017-04-04T13:07:38.401Z,23.31
2017-04-04T13:08:48.070Z,23.35
2017-04-04T13:09:58.115Z,23.2
2017-04-04T13:11:08.266Z,23.19
2017-04-04T13:12:18.494Z,23.27
2017-04-04T13:13:28.428Z,23.19
2017-04-04T13:14:38.089Z,23.2
2017-04-04T13:15:48.061Z,23.22
2017-04-04T13:16:58.154Z,23.13
2017-04-04T13:18:07.778Z,23.13
2017-04-04T13:19:17.399Z,23.16
2017-04-04T13:20:27.634Z,23.19
2017-04-04T13:21:37.885Z,23.19
2017-04-04T13:22:47.932Z,23.16
2017-04-04T13:23:57.854Z,23.15
2017-04-04T13:25:07.179Z,23.17
2017-04-04T13:26:17.428Z,23.17
2017-04-04T13:27:27.366Z,23.13
2017-04-04T13:28:37.708Z,23.13
2017-04-04T13:29:47.640Z,23.15
2017-04-04T13:30:57.596Z,23.15
2017-04-04T13:32:06.904Z,23.15
2017-04-04T13:33:16.847Z,23.2
2017-04-04T13:34:27.184Z,23.19
2017-04-04T13:35:37.189Z,23.2
2017-04-04T13:36:46.813Z,23.16
2017-04-04T13:37:57.048Z,23.19
2017-04-04T13:39:06.991Z,23.13
2017-04-04T13:40:17.394Z,23.2
2017-04-04T13:41:27.008Z,23.15
2017-04-04T13:42:36.934Z,23.15
2017-04-04T13:43:47.186Z,23.15
2017-04-04T13:44:56.518Z,23.15
2017-04-04T13:46:06.265Z,23.17
2017-04-04T13:47:16.203Z,23.09
2017-04-04T13:48:26.454Z,23.15
2017-04-04T13:49:36.370Z,23.19
2017-04-04T13:50:46.017Z,23.12
2017-04-04T13:51:56.431Z,23.15
2017-04-04T13:53:06.391Z,23.19
2017-04-04T13:54:16.348Z,23.17
2017-04-04T13:55:25.985Z,23.17
2017-04-04T13:56:35.624Z,23.16
2017-04-04T13:57:46.017Z,23.17
2017-04-04T13:58:56.263Z,23.17
2017-04-04T14:00:05.286Z,23.12
2017-04-04T14:01:15.231Z,23.05
2017-04-04T14:02:25.532Z,23.05
2017-04-04T14:03:35.606Z,23.1
2017-04-04T14:04:45.568Z,23.13
2017-04-04T14:05:55.811Z,23.12
2017-04-04T14:07:05.733Z,23.07
2017-04-04T14:08:15.652Z,23.09
2017-04-04T14:09:26.024Z,23.02
2017-04-04T14:10:36.254Z,23.05
2017-04-04T14:11:46.163Z,23.01
2017-04-04T14:12:55.486Z,23.01
2017-04-04T14:14:05.094Z,23.04
2017-04-04T14:15:15.461Z,23.01
2017-04-04T14:16:25.720Z,23.05
2017-04-04T14:17:35.686Z,23.01
2017-04-04T14:18:45.931Z,23.15
2017-04-04T14:19:55.603Z,23.07
2017-04-04T14:21:05.662Z,23
2017-04-04T14:22:15.280Z,23.16
2017-04-04T14:23:25.507Z,23.09
2017-04-04T14:24:35.131Z,23.1
2017-04-04T14:25:45.359Z,23.16
2017-04-04T14:26:55.444Z,23.07
2017-04-04T14:28:05.056Z,23.17
2017-04-04T14:29:14.698Z,23.17
2017-04-04T14:30:24.629Z,23.19
2017-04-04T14:31:34.561Z,23.16
2017-04-04T14:32:44.347Z,23.13
2017-04-04T14:33:54.273Z,23.16
2017-04-04T14:35:04.178Z,23.19
2017-04-04T14:36:14.169Z,23.15
2017-04-04T14:37:24.455Z,23.17
2017-04-04T14:38:34.970Z,23.22
2017-04-04T14:39:45.066Z,23.19
2017-04-04T14:40:54.859Z,23.28
2017-04-04T14:42:04.821Z,23.27
2017-04-04T14:43:15.087Z,23.23
2017-04-04T14:44:25.506Z,23.19
2017-04-04T14:45:35.461Z,23.2
2017-04-04T14:46:45.418Z,23.22
2017-04-04T14:47:55.088Z,23.19
2017-04-04T14:49:04.714Z,23.22
2017-04-04T14:50:14.793Z,23.2
2017-04-04T14:51:24.709Z,23.22
2017-04-04T14:52:34.968Z,23.1
2017-04-04T14:53:44.582Z,23.19
2017-04-04T14:54:54.484Z,23.17
2017-04-04T14:56:04.281Z,23.17
2017-04-04T14:57:14.206Z,23.19
2017-04-04T14:58:24.149Z,23.16
2017-04-04T14:59:34.466Z,23.17
2017-04-04T15:00:44.666Z,23.16
2017-04-04T15:01:54.681Z,23.17
2017-04-04T15:03:04.918Z,23.07
2017-04-04T15:04:14.863Z,23.1
2017-04-04T15:05:24.810Z,23.15
2017-04-04T15:06:35.128Z,23.15